Latest Weather Observations for Newdegate

IDW60801

Issued at 12:34 am WST Wednesday 22 February 2017 (issued every 30 minutes, with the page automatically refreshed every 10 minutes)

About weather observations | Map of weather stations | Latest weather observations for WA | Other Formats
Station Details ID: 010692 Name: NEWDEGATE RESEARCH STATION Lat: -33.11 Lon: 118.84 Height: 320.0 m
Data from the previous 72 hours. | See also: Recent months at Newdegate
Date/Time
WST
Temp
°C
App
Temp
°C
Dew
Point
°C
Rel
Hum
%
Delta-T
°C
Wind Press
QNH
hPa
Press
MSL
hPa
Rain since
9am
mm
Dir  Spd
km/h
Gust
km/h
Spd
kts
Gust
kts
22/12:30am 10.3 7.2 5.7 73 2.1 SW 11 17 6 9 1017.0 1015.6 0.0
22/12:00am 10.4 7.0 5.8 73 2.2 SW 13 17 7 9 1017.1 1015.7 0.0
 
Date/Time
WST
Temp
°C
App
Temp
°C
Dew
Point
°C
Rel
Hum
%
Delta-T
°C
Wind Press
QNH
hPa
Press
MSL
hPa
Rain since
9am
mm
Dir  Spd
km/h
Gust
km/h
Spd
kts
Gust
kts
21/11:30pm 10.8 7.3 5.3 69 2.6 SW 13 19 7 10 1017.1 1015.7 0.0
21/11:00pm 11.2 7.7 5.5 68 2.7 SSW 13 19 7 10 1017.1 1015.7 0.0
21/10:30pm 11.5 7.9 5.2 65 2.9 SSW 13 17 7 9 1017.1 1015.7 0.0
21/10:00pm 12.2 8.2 4.9 61 3.4 SW 15 19 8 10 1017.2 1015.8 0.0
21/09:30pm 12.3 8.7 5.0 61 3.4 SW 13 19 7 10 1017.1 1015.7 0.0
21/09:00pm 13.1 9.1 5.0 58 3.8 SW 15 20 8 11 1016.9 1015.5 0.0
21/08:30pm 13.5 9.1 4.9 56 4.1 SSW 17 22 9 12 1016.6 1015.2 0.0
21/08:00pm 13.7 9.9 3.8 51 4.6 SSW 13 19 7 10 1016.4 1014.9 0.0
21/07:30pm 14.7 10.6 4.1 49 5.0 SW 15 19 8 10 1016.0 1014.5 0.0
21/07:00pm 15.6 10.6 3.7 45 5.6 SW 19 26 10 14 1015.3 1013.9 0.0
21/06:30pm 16.8 10.4 3.1 40 6.4 SW 26 35 14 19 1014.6 1013.2 0.0
21/06:00pm 17.4 11.2 4.4 42 6.3 SW 26 39 14 21 1014.1 1012.7 0.0
21/05:30pm 17.8 11.2 4.4 41 6.5 SW 28 39 15 21 1013.6 1012.1 0.0
21/05:00pm 18.4 10.5 4.2 39 6.9 WSW 35 46 19 25 1013.1 1011.6 0.0
21/04:42pm 18.3 11.1 4.8 41 6.6 SW 32 50 17 27 1012.9 1011.4 0.0
21/04:30pm 18.9 10.9 3.9 37 7.2 WSW 35 50 19 27 1012.6 1011.1 0.0
21/04:01pm 18.6 11.9 5.5 42 6.5 WSW 30 48 16 26 1012.2 1010.8 0.0
21/04:00pm 18.2 10.9 4.7 41 6.6 WSW 32 50 17 27 1012.4 1010.9 0.0
21/03:30pm 19.0 11.1 4.4 38 7.1 WSW 35 50 19 27 1011.8 1010.4 0.0
21/03:02pm 19.3 11.2 5.4 40 6.9 WSW 37 56 20 30 1011.6 1010.2 0.0
21/03:00pm 18.6 9.8 3.6 37 7.2 WSW 39 57 21 31 1011.5 1010.1 0.0
21/02:42pm 19.6 10.7 4.9 38 7.3 WSW 41 59 22 32 1011.3 1009.9 0.0
21/02:30pm 19.4 10.9 5.1 39 7.1 WSW 39 57 21 31 1011.3 1009.9 0.0
21/02:22pm 19.4 11.2 4.7 38 7.2 WSW 37 57 20 31 1011.3 1009.9 0.0
21/02:00pm 18.8 10.1 4.2 38 7.1 WSW 39 56 21 30 1011.4 1010.0 0.0
21/01:54pm 20.1 12.0 5.4 38 7.4 WSW 37 56 20 30 1011.3 1009.9 0.0
21/01:30pm 18.6 10.5 3.3 36 7.3 WSW 35 52 19 28 1011.1 1009.7 0.0
21/01:04pm 19.8 10.9 3.1 33 8.0 WSW 39 59 21 32 1011.0 1009.5 0.0
21/01:00pm 19.0 9.7 2.8 34 7.6 WSW 41 59 22 32 1011.0 1009.5 0.0
21/12:36pm 19.5 11.2 4.4 37 7.4 WSW 37 59 20 32 1011.0 1009.5 0.0
21/12:30pm 19.0 10.9 5.1 40 6.9 WSW 37 50 20 27 1011.0 1009.5 0.0
21/12:00pm 18.5 11.8 5.7 43 6.4 WSW 30 41 16 22 1010.9 1009.4 0.0
21/11:39am 18.7 11.7 5.9 43 6.4 WSW 32 50 17 27 1011.1 1009.7 0.0
21/11:30am 17.6 10.1 4.2 41 6.4 WSW 33 48 18 26 1011.0 1009.5 0.0
21/11:15am 17.3 9.3 3.9 41 6.4 WSW 35 54 19 29 1011.0 1009.5 0.0
21/11:00am 17.3 8.8 5.3 45 5.9 WSW 39 54 21 29 1011.0 1009.5 0.0
21/10:30am 17.1 9.0 7.2 52 5.0 WSW 39 54 21 29 1011.0 1009.5 0.0
21/10:10am 17.0 10.9 9.7 62 3.9 WSW 32 50 17 27 1010.9 1009.4 0.0
21/10:00am 15.6 9.4 9.3 66 3.3 WSW 32 46 17 25 1011.0 1009.5 0.0
21/09:31am 15.2 10.2 10.8 75 2.4 SW 28 50 15 27 1010.7 1009.2 0.0
21/09:30am 15.2 10.7 11.4 78 2.1 SW 26 37 14 20 1010.7 1009.2 0.0
21/09:00am 13.3 8.4 11.2 87 1.1 WSW 28 37 15 20 1010.4 1008.9 0.4
21/08:42am 14.0 8.7 11.2 83 1.5 WSW 30 57 16 31 1010.4 1008.9 0.0
21/08:30am 14.0 8.3 11.2 83 1.5 W 32 46 17 25 1010.0 1008.5 0.0
21/08:00am 14.9 9.3 10.1 73 2.6 W 30 46 16 25 1009.4 1007.9 0.0
21/07:50am 15.9 10.3 10.2 69 3.0 W 30 54 16 29 1009.3 1007.8 0.0
21/07:30am 15.5 11.1 10.5 72 2.7 W 24 39 13 21 1008.9 1007.5 0.0
21/07:00am 15.0 11.2 9.8 71 2.7 W 20 33 11 18 1008.8 1007.4 0.0
21/06:30am 14.2 11.2 9.4 73 2.5 W 15 22 8 12 1008.8 1007.4 0.0
21/06:00am 13.6 10.4 9.8 78 2.0 W 17 26 9 14 1008.4 1007.0 0.0
21/05:30am 13.9 11.1 9.9 77 2.1 W 15 22 8 12 1008.3 1006.9 0.0
21/05:00am 14.6 11.5 11.6 82 1.6 W 19 30 10 16 1008.3 1006.9 0.0
21/04:30am 14.5 14.7 12.9 90 0.9 WNW 4 9 2 5 1007.8 1006.3 0.0
21/04:00am 13.8 13.3 12.2 90 0.9 W 6 6 3 3 1007.9 1006.4 0.0
21/03:30am 14.4 13.1 12.6 89 1.0 WSW 11 15 6 8 1008.1 1006.6 0.0
21/03:00am 14.3 13.3 12.3 88 1.1 WSW 9 15 5 8 1008.1 1006.6 0.0
21/02:30am 14.8 14.3 12.8 88 1.1 SW 7 13 4 7 1008.4 1007.0 0.0
21/02:00am 15.1 14.0 13.1 88 1.1 SW 11 15 6 8 1008.6 1007.2 0.0
21/01:30am 15.6 12.9 12.9 84 1.5 SSW 19 24 10 13 1008.6 1007.2 0.0
21/01:00am 16.5 15.2 13.6 83 1.7 S 13 19 7 10 1008.7 1007.3 0.0
21/12:30am 16.7 15.4 13.8 83 1.7 SSE 13 17 7 9 1008.8 1007.4 0.0
21/12:00am 16.8 15.6 13.9 83 1.7 SE 13 17 7 9 1009.0 1007.6 0.0
 
Date/Time
WST
Temp
°C
App
Temp
°C
Dew
Point
°C
Rel
Hum
%
Delta-T
°C
Wind Press
QNH
hPa
Press
MSL
hPa
Rain since
9am
mm
Dir  Spd
km/h
Gust
km/h
Spd
kts
Gust
kts
20/11:30pm 16.6 16.2 14.1 85 1.4 SSE 9 13 5 7 1009.7 1008.2 0.0
20/11:00pm 16.2 15.2 13.5 84 1.5 SE 11 17 6 9 1009.6 1008.1 0.0
20/10:30pm 16.7 15.0 13.6 82 1.8 SE 15 19 8 10 1009.2 1007.7 0.0
20/10:00pm 18.1 15.5 13.8 76 2.5 SE 20 26 11 14 1009.4 1007.9 0.0
20/09:30pm 19.0 17.5 14.1 73 2.9 ESE 15 24 8 13 1009.6 1008.1 0.0
20/09:00pm 20.6 19.2 14.5 68 3.6 ESE 15 19 8 10 1009.5 1008.0 0.0
20/08:30pm 21.5 21.4 14.9 66 3.9 ESE 9 13 5 7 1009.5 1008.0 0.0
20/08:00pm 22.1 20.4 14.7 63 4.4 ESE 17 24 9 13 1009.3 1007.8 0.0
20/07:30pm 23.6 23.5 14.0 55 5.7 SE 7 9 4 5 1009.0 1007.6 0.0
20/07:00pm 23.9 23.4 13.7 53 6.1 S 9 13 5 7 1008.7 1007.3 0.0
20/06:30pm 24.2 21.6 13.1 50 6.5 SSW 19 24 10 13 1008.3 1006.9 0.0
20/06:00pm 25.9 23.8 13.7 47 7.3 SSW 17 20 9 11 1007.9 1006.4 0.0
20/05:30pm 27.4 25.6 13.4 42 8.4 SSW 15 20 8 11 1007.8 1006.3 0.0
20/05:00pm 27.7 25.2 13.6 42 8.5 SW 19 26 10 14 1007.9 1006.4 0.0
20/04:30pm 29.6 29.3 13.4 37 9.8 WSW 7 13 4 7 1008.0 1006.5 0.0
20/04:00pm 28.8 26.8 12.7 37 9.6 W 15 24 8 13 1008.4 1007.0 0.0
20/03:30pm 29.1 27.3 13.3 37 9.5 W 15 24 8 13 1008.6 1007.2 0.0
20/03:00pm 28.5 27.9 13.6 40 9.0 NW 9 19 5 10 1008.9 1007.5 0.0
20/02:30pm 28.4 29.1 15.7 46 7.9 WSW 6 15 3 8 1009.4 1007.9 0.0
20/02:00pm 25.8 25.9 16.6 56 5.8 SW 11 19 6 10 1010.2 1008.7 0.0
20/01:30pm 26.9 26.3 14.6 46 7.5 WSW 11 19 6 10 1010.4 1008.9 0.0
20/01:00pm 27.2 27.5 15.9 50 7.0 SW 9 13 5 7 1010.7 1009.2 0.0
20/12:30pm 27.7 28.5 17.3 53 6.6 SW 9 22 5 12 1011.0 1009.5 0.0
20/12:00pm 26.7 27.1 16.3 53 6.5 S 9 13 5 7 1011.3 1009.9 0.0
20/11:30am 26.2 27.0 16.4 54 6.1 ESE 7 17 4 9 1011.7 1010.3 0.0
20/11:00am 25.1 25.7 15.7 56 5.8 S 7 13 4 7 1012.0 1010.6 0.0
20/10:30am 24.7 24.8 16.4 60 5.2 S 11 19 6 10 1012.2 1010.8 0.0
20/10:00am 24.4 24.9 16.6 61 4.9 SSE 9 17 5 9 1012.5 1011.0 0.0
20/09:30am 23.0 22.2 16.1 65 4.2 S 15 22 8 12 1012.8 1011.3 0.0
20/09:00am 22.2 21.4 16.0 68 3.8 SSE 15 20 8 11 1012.6 1011.1 0.0
20/08:30am 21.1 20.0 15.4 70 3.4 S 15 20 8 11 1012.7 1011.2 0.0
20/08:00am 20.3 18.7 14.9 71 3.2 S 17 22 9 12 1012.4 1010.9 0.0
20/07:30am 20.1 18.1 14.9 72 3.1 S 19 24 10 13 1012.4 1010.9 0.0
20/07:00am 19.8 17.4 14.4 71 3.2 SSW 20 28 11 15 1012.1 1010.7 0.0
20/06:30am 19.0 17.1 14.3 74 2.8 SSW 17 24 9 13 1011.7 1010.3 0.0
20/06:00am 18.9 17.0 14.2 74 2.8 SSW 17 22 9 12 1011.2 1009.8 0.0
20/05:30am 18.7 19.0 14.6 77 2.4 WSW 6 9 3 5 1010.9 1009.4 0.0
20/05:00am 18.2 18.2 13.5 74 2.7 SSW 6 7 3 4 1010.6 1009.1 0.0
20/04:30am 18.9 18.7 13.5 71 3.1 WSW 7 9 4 5 1010.5 1009.0 0.0
20/04:00am 19.8 20.6 13.7 68 3.6 SW 2 6 1 3 1010.5 1009.0 0.0
20/03:30am 19.7 19.2 12.7 64 4.0 NNW 7 9 4 5 1010.9 1009.4 0.0
20/03:00am 21.2 20.2 13.4 61 4.5 WNW 11 19 6 10 1011.3 1009.9 0.0
20/02:30am 20.7 20.4 12.7 60 4.6 NW 6 11 3 6 1011.4 1010.0 0.0
20/02:00am 21.0 19.6 12.2 57 5.0 NW 11 13 6 7 1011.4 1010.0 0.0
20/01:30am 21.8 20.4 12.1 54 5.5 WNW 11 17 6 9 1011.6 1010.2 0.0
20/01:00am 19.7 20.7 13.2 66 3.8 CALM 0 6 0 3 1011.6 1010.2 0.0
20/12:30am 19.4 19.8 13.8 70 3.3 ENE 4 4 2 2 1011.7 1010.3 0.0
20/12:00am 18.9 19.8 14.0 73 2.9 NNE 2 4 1 2 1011.8 1010.4 0.0
 
Date/Time
WST
Temp
°C
App
Temp
°C
Dew
Point
°C
Rel
Hum
%
Delta-T
°C
Wind Press
QNH
hPa
Press
MSL
hPa
Rain since
9am
mm
Dir  Spd
km/h
Gust
km/h
Spd
kts
Gust
kts
19/11:30pm 18.6 20.3 15.1 80 2.1 CALM 0 0 0 0 1012.0 1010.6 0.0
19/11:00pm 18.7 20.3 15.0 79 2.2 CALM 0 0 0 0 1012.1 1010.7 0.0
19/10:30pm 18.6 20.3 15.1 80 2.1 CALM 0 0 0 0 1012.2 1010.8 0.0
19/10:00pm 19.0 20.6 14.9 77 2.4 CALM 0 0 0 0 1012.6 1011.1 0.0
19/09:30pm 20.0 21.8 15.6 76 2.6 CALM 0 0 0 0 1012.8 1011.3 0.0
19/09:00pm 21.0 22.7 15.1 69 3.5 CALM 0 0 0 0 1013.1 1011.6 0.0
19/08:30pm 20.7 22.3 15.0 70 3.4 CALM 0 0 0 0 1013.1 1011.6 0.0
19/08:00pm 22.9 24.3 15.5 63 4.5 NE 2 4 1 2 1013.0 1011.5 0.0
19/07:30pm 23.2 24.8 15.0 60 4.9 CALM 0 2 0 1 1013.1 1011.6 0.0
19/07:00pm 26.1 27.4 15.2 51 6.7 NNE 2 2 1 1 1012.9 1011.4 0.0
19/06:30pm 29.0 28.9 13.2 37 9.5 N 6 7 3 4 1012.7 1011.2 0.0
19/06:00pm 31.0 29.9 11.9 31 11.3 N 9 13 5 7 1012.6 1011.1 0.0
19/05:30pm 31.9 30.2 11.1 28 12.2 N 11 19 6 10 1012.7 1011.2 0.0
19/05:00pm 33.1 31.9 10.4 25 13.3 NW 7 24 4 13 1012.8 1011.3 0.0
19/04:30pm 33.5 32.3 9.5 23 13.9 WSW 6 11 3 6 1013.2 1011.7 0.0
19/04:00pm 33.2 32.1 9.9 24 13.5 WSW 6 9 3 5 1013.4 1011.9 0.0
19/03:30pm 33.0 31.2 10.9 26 13.0 N 11 26 6 14 1013.5 1012.0 0.0
19/03:00pm 33.0 30.9 9.7 24 13.5 N 11 17 6 9 1013.8 1012.3 0.0
19/02:30pm 32.5 29.3 9.9 25 13.1 N 17 28 9 15 1014.2 1012.8 0.0
19/02:00pm 32.8 31.2 10.2 25 13.2 N 9 19 5 10 1014.6 1013.2 0.0
19/01:30pm 31.6 29.1 8.0 23 13.2 NNE 11 20 6 11 1015.0 1013.6 0.0
19/01:00pm 31.8 29.2 9.3 25 12.8 N 13 24 7 13 1015.7 1014.2 0.0
19/12:30pm 31.4 28.7 10.2 27 12.3 NNW 15 26 8 14 1016.0 1014.5 0.0
19/12:00pm 30.3 27.4 9.8 28 11.7 NNW 15 22 8 12 1016.4 1014.9 0.0
19/11:30am 29.8 26.4 9.3 28 11.6 NNW 17 26 9 14 1016.9 1015.5 0.0
19/11:00am 28.2 24.9 9.5 31 10.5 N 17 24 9 13 1017.5 1016.1 0.0
19/10:30am 27.4 23.5 9.3 32 10.1 N 20 30 11 16 1017.8 1016.4 0.0
19/10:00am 25.8 21.8 9.2 35 9.2 N 20 28 11 15 1018.2 1016.8 0.0
19/09:30am 24.9 20.9 9.2 37 8.7 N 20 28 11 15 1018.6 1017.2 0.0
19/09:00am 23.4 19.4 9.0 40 7.8 N 20 30 11 16 1019.0 1017.5 0.0
19/08:30am 22.1 17.9 9.9 46 6.7 NNE 22 30 12 16 1019.3 1017.8 0.0
19/08:00am 20.1 16.6 10.2 53 5.4 NNE 19 24 10 13 1019.5 1018.1 0.0
19/07:30am 17.8 15.9 11.8 68 3.3 NE 13 17 7 9 1019.6 1018.2 0.0
19/07:00am 16.0 15.2 11.8 76 2.3 NE 7 9 4 5 1019.6 1018.2 0.0
19/06:30am 14.2 14.0 11.9 86 1.3 ENE 4 6 2 3 1019.4 1018.0 0.0
19/06:00am 12.2 10.9 10.1 87 1.1 E 7 9 4 5 1019.1 1017.6 0.0
19/05:30am 12.1 10.8 9.8 86 1.2 E 7 9 4 5 1019.2 1017.7 0.0
19/05:00am 12.4 11.1 9.8 84 1.3 E 7 9 4 5 1019.2 1017.7 0.0
19/04:30am 13.1 11.9 10.3 83 1.5 ENE 7 11 4 6 1019.0 1017.5 0.0
19/04:00am 13.5 12.1 11.0 85 1.3 E 9 13 5 7 1019.0 1017.5 0.0
19/03:30am 13.1 11.7 10.8 86 1.2 E 9 11 5 6 1019.0 1017.5 0.0
19/03:00am 13.3 11.9 10.8 85 1.3 ESE 9 11 5 6 1019.4 1018.0 0.0
19/02:30am 13.9 12.2 11.2 84 1.5 E 11 13 6 7 1019.5 1018.1 0.0
19/02:00am 14.1 12.5 11.4 84 1.5 E 11 15 6 8 1019.7 1018.3 0.0
19/01:30am 14.3 12.7 11.5 83 1.5 ESE 11 13 6 7 1020.1 1018.7 0.0
19/01:00am 14.8 12.9 11.8 82 1.6 E 13 19 7 10 1020.2 1018.8 0.0

Other Formats:

Comma delimited format used in spreadsheet applications
http://www.bom.gov.au/fwo/IDW60801/IDW60801.94628.axf

JavaScript Object Notation format (JSON) in row-major order
http://www.bom.gov.au/fwo/IDW60801/IDW60801.94628.json